Time;durP1;ratioP1;P1;durP2;ratioP2;P2;SDS_P1;SDS_P2;PMS_P1;PMS_P2;Temp;Humidity;BMP_temperature;BMP_pressure;BME280_temperature;BME280_humidity;BME280_pressure;Samples;Min_cycle;Max_cycle;Signal;HPM_P1;HPM_P2
2022/07/05 00:01:29;;;;;;;1.63;1.00;;;22.30;92.10;;;;;;5023434;28;20491;-89
2022/07/05 00:03:56;;;;;;;1.07;0.90;;;22.30;92.10;;;;;;5020587;28;20455;-90
2022/07/05 00:06:23;;;;;;;2.17;1.23;;;22.30;92.10;;;;;;5025463;28;20596;-90
2022/07/05 00:08:49;;;;;;;1.37;1.10;;;22.30;92.20;;;;;;5030677;28;20466;-89
2022/07/05 00:11:17;;;;;;;1.47;1.00;;;22.30;92.50;;;;;;5017060;28;20462;-90
2022/07/05 00:13:44;;;;;;;1.87;1.20;;;22.30;92.50;;;;;;5026640;28;20465;-91
2022/07/05 00:16:11;;;;;;;1.63;1.10;;;22.30;92.60;;;;;;5025573;28;20471;-90
2022/07/05 00:18:38;;;;;;;1.50;1.00;;;22.30;92.60;;;;;;5027943;28;20470;-89
2022/07/05 00:21:05;;;;;;;2.30;1.07;;;22.20;92.50;;;;;;5029631;28;20473;-87
2022/07/05 00:23:31;;;;;;;1.83;1.10;;;22.20;92.50;;;;;;5025409;28;20466;-90
2022/07/05 00:25:58;;;;;;;1.80;1.00;;;22.20;92.50;;;;;;5023004;28;20841;-91
2022/07/05 00:28:26;;;;;;;1.80;1.70;;;22.20;92.50;;;;;;5029191;28;20461;-90
2022/07/05 00:30:53;;;;;;;2.50;1.43;;;22.20;92.60;;;;;;5017622;28;20459;-89
2022/07/05 00:33:20;;;;;;;1.43;1.17;;;22.10;92.50;;;;;;5028799;28;20484;-91
2022/07/05 00:35:46;;;;;;;2.47;1.30;;;22.10;92.60;;;;;;5018024;28;20463;-90
2022/07/05 00:38:13;;;;;;;1.13;1.00;;;22.10;92.70;;;;;;5027311;28;20470;-90
2022/07/05 00:40:40;;;;;;;1.10;0.83;;;22.10;92.70;;;;;;5027383;28;21155;-90
2022/07/05 00:43:07;;;;;;;1.67;1.00;;;22.10;92.80;;;;;;5031213;28;20450;-89
2022/07/05 00:45:35;;;;;;;1.83;1.00;;;22.00;92.70;;;;;;5022469;28;20950;-90
2022/07/05 00:48:01;;;;;;;1.50;1.40;;;22.00;92.80;;;;;;5023165;28;20458;-89
2022/07/05 00:50:28;;;;;;;2.07;1.00;;;22.00;92.90;;;;;;5021871;28;20472;-89
2022/07/05 00:52:57;;;;;;;1.40;1.10;;;22.00;92.90;;;;;;5028705;28;21004;-90
2022/07/05 00:55:24;;;;;;;1.27;0.93;;;22.00;93.00;;;;;;5024174;28;20941;-89
2022/07/05 00:57:51;;;;;;;3.10;1.40;;;22.00;93.10;;;;;;5030169;28;21014;-89
2022/07/05 01:00:18;;;;;;;1.27;1.10;;;21.90;93.10;;;;;;5027528;28;20477;-89
2022/07/05 01:02:46;;;;;;;1.83;1.20;;;21.90;93.10;;;;;;5023939;28;20470;-89
2022/07/05 01:05:13;;;;;;;2.03;1.30;;;21.90;93.20;;;;;;5017270;28;20463;-89
2022/07/05 01:07:40;;;;;;;1.97;1.80;;;21.90;93.20;;;;;;5028280;28;20483;-89
2022/07/05 01:10:08;;;;;;;3.73;1.13;;;21.90;93.30;;;;;;5022139;28;20470;-89
2022/07/05 01:12:35;;;;;;;1.50;1.30;;;21.90;93.40;;;;;;5023888;28;20835;-89
2022/07/05 01:15:02;;;;;;;34.77;33.57;;;21.90;93.40;;;;;;5020450;28;20466;-89
2022/07/05 01:17:29;;;;;;;2.27;1.50;;;21.80;93.30;;;;;;5023815;28;20505;-89
2022/07/05 01:19:57;;;;;;;1.17;1.07;;;21.80;93.40;;;;;;5031648;28;20953;-90
2022/07/05 01:22:27;;;;;;;1.40;1.20;;;21.80;93.50;;;;;;5027677;28;20461;-90
2022/07/05 01:24:56;;;;;;;2.87;1.30;;;21.80;93.50;;;;;;5028097;28;20447;-88
2022/07/05 01:27:23;;;;;;;1.47;1.33;;;21.80;93.60;;;;;;5034688;28;20833;-90
2022/07/05 01:29:50;;;;;;;1.33;1.10;;;21.70;93.50;;;;;;5031218;28;20857;-89
2022/07/05 01:32:17;;;;;;;1.57;1.17;;;21.70;93.50;;;;;;5030628;28;20458;-90
2022/07/05 01:34:44;;;;;;;1.40;1.20;;;21.70;93.50;;;;;;5022470;28;20546;-89
2022/07/05 01:37:11;;;;;;;1.10;0.93;;;21.70;93.60;;;;;;5024948;28;20701;-89
2022/07/05 01:39:38;;;;;;;1.13;1.00;;;21.70;93.60;;;;;;5019876;28;20518;-91
2022/07/05 01:42:07;;;;;;;2.47;1.57;;;21.70;93.60;;;;;;5020563;28;21094;-90
2022/07/05 01:44:34;;;;;;;1.33;1.13;;;21.70;93.70;;;;;;5033203;28;20435;-89
2022/07/05 01:47:07;;;;;;;1.30;1.20;;;21.70;93.70;;;;;;5030550;28;20543;-89
2022/07/05 01:49:39;;;;;;;1.00;0.90;;;21.60;93.70;;;;;;5023271;28;20545;-89
2022/07/05 01:52:10;;;;;;;2.30;1.10;;;21.60;93.80;;;;;;5019360;28;20454;-88
2022/07/05 01:54:38;;;;;;;1.43;1.20;;;21.60;93.80;;;;;;5030163;28;20468;-89
2022/07/05 01:57:08;;;;;;;3.33;1.60;;;21.60;93.90;;;;;;5026013;28;20456;-89
2022/07/05 01:59:35;;;;;;;2.17;1.13;;;21.60;93.90;;;;;;5031232;28;20443;-89
2022/07/05 02:02:02;;;;;;;1.63;1.00;;;21.50;93.90;;;;;;5021497;28;20473;-88
2022/07/05 02:04:30;;;;;;;1.30;1.00;;;21.50;94.00;;;;;;5027048;28;20466;-89
2022/07/05 02:06:57;;;;;;;1.20;1.07;;;21.50;94.00;;;;;;5028643;28;20482;-88
2022/07/05 02:09:24;;;;;;;2.90;1.10;;;21.50;94.10;;;;;;5027711;28;20458;-90
2022/07/05 02:11:51;;;;;;;1.60;1.30;;;21.50;94.10;;;;;;5022173;28;20482;-90
2022/07/05 02:14:19;;;;;;;2.33;1.27;;;21.50;94.20;;;;;;5027865;28;20816;-91
2022/07/05 02:16:46;;;;;;;1.77;1.00;;;21.50;94.20;;;;;;5026715;28;20532;-90
2022/07/05 02:19:13;;;;;;;2.27;1.10;;;21.50;94.20;;;;;;5019818;28;20568;-87
2022/07/05 02:21:40;;;;;;;1.40;1.03;;;21.40;94.20;;;;;;5028891;28;20461;-87
2022/07/05 02:24:07;;;;;;;1.40;1.30;;;21.40;94.20;;;;;;5028468;28;21029;-88
2022/07/05 02:26:34;;;;;;;1.10;0.97;;;21.40;94.30;;;;;;5030537;28;20482;-86
2022/07/05 02:29:03;;;;;;;1.50;1.00;;;21.40;94.30;;;;;;5024823;28;20462;-87
2022/07/05 02:31:31;;;;;;;1.73;1.40;;;21.40;94.40;;;;;;5028487;28;20467;-87
2022/07/05 02:33:58;;;;;;;3.67;0.93;;;21.40;94.50;;;;;;5032495;28;20457;-87
2022/07/05 02:36:25;;;;;;;1.40;1.10;;;21.40;94.40;;;;;;5032625;28;20442;-87
2022/07/05 02:38:52;;;;;;;1.10;1.00;;;21.30;94.50;;;;;;5023184;28;20477;-87
2022/07/05 02:41:19;;;;;;;1.30;1.17;;;21.30;94.60;;;;;;5029901;28;20466;-86
2022/07/05 02:43:46;;;;;;;1.20;1.10;;;21.30;94.60;;;;;;5014863;28;20968;-88
2022/07/05 02:46:13;;;;;;;1.30;1.07;;;21.30;94.70;;;;;;5022778;28;20462;-88
2022/07/05 02:48:41;;;;;;;1.40;0.93;;;21.30;94.80;;;;;;5024516;28;20463;-88
2022/07/05 02:51:08;;;;;;;2.33;1.63;;;21.30;94.80;;;;;;5030770;28;20474;-88
2022/07/05 02:53:35;;;;;;;1.90;1.27;;;21.20;94.80;;;;;;5028733;28;20827;-88
2022/07/05 02:56:02;;;;;;;1.23;1.13;;;21.20;94.80;;;;;;5031333;28;20200;-88
2022/07/05 02:58:29;;;;;;;1.80;0.90;;;21.20;94.80;;;;;;5030626;28;20199;-88
2022/07/05 03:00:56;;;;;;;1.90;1.17;;;21.20;94.90;;;;;;5023788;28;20461;-88
2022/07/05 03:03:22;;;;;;;1.50;1.40;;;21.20;95.00;;;;;;5027252;28;20563;-88
2022/07/05 03:05:50;;;;;;;2.03;1.83;;;21.20;95.10;;;;;;5011948;28;20446;-88
2022/07/05 03:08:17;;;;;;;1.50;1.40;;;21.20;95.10;;;;;;5016253;28;20871;-88
2022/07/05 03:10:44;;;;;;;1.43;1.33;;;21.20;95.20;;;;;;5023749;28;20934;-88
2022/07/05 03:13:11;;;;;;;1.30;1.10;;;21.10;95.20;;;;;;5026780;28;20469;-88
2022/07/05 03:15:38;;;;;;;1.95;1.65;;;21.20;95.40;;;;;;5026467;28;20211;-88
2022/07/05 03:18:04;;;;;;;100.03;96.50;;;21.10;95.40;;;;;;5029049;28;20200;-87
2022/07/05 03:20:31;;;;;;;298.58;288.33;;;21.10;95.70;;;;;;5023142;28;20455;-88
2022/07/05 03:22:59;;;;;;;241.30;233.38;;;21.10;95.40;;;;;;5025469;28;20199;-88
2022/07/05 03:25:26;;;;;;;212.90;205.98;;;21.10;95.50;;;;;;5031012;28;20226;-88
2022/07/05 03:27:53;;;;;;;184.88;178.90;;;21.10;95.50;;;;;;5025073;28;20216;-88
2022/07/05 03:30:20;;;;;;;4.63;4.50;;;21.10;95.60;;;;;;5028115;28;20211;-88
2022/07/05 03:32:46;;;;;;;258.45;249.90;;;21.10;95.60;;;;;;5024415;28;20672;-88
2022/07/05 03:35:13;;;;;;;1.70;1.20;;;21.00;95.60;;;;;;5027712;28;20199;-87
2022/07/05 03:37:40;;;;;;;1.92;1.30;;;21.00;95.70;;;;;;5026013;28;20199;-87
2022/07/05 03:40:09;;;;;;;1.20;1.00;;;21.00;95.80;;;;;;5021136;28;20199;-88
2022/07/05 03:42:35;;;;;;;1.20;1.10;;;21.00;95.90;;;;;;5029494;28;20192;-88
2022/07/05 03:45:03;;;;;;;2.33;1.40;;;21.00;95.90;;;;;;5028852;28;20453;-88
2022/07/05 03:47:29;;;;;;;1.50;1.25;;;21.00;95.90;;;;;;5022078;28;20223;-88
2022/07/05 03:49:56;;;;;;;2.60;1.20;;;21.00;96.00;;;;;;5022311;28;20200;-88
2022/07/05 03:52:23;;;;;;;1.50;1.08;;;21.00;96.10;;;;;;5014585;28;20655;-88
2022/07/05 03:54:50;;;;;;;4.55;4.30;;;21.00;96.10;;;;;;5031117;28;20237;-87
2022/07/05 03:57:18;;;;;;;4.53;1.10;;;20.90;96.10;;;;;;5031236;28;20195;-89
2022/07/05 03:59:45;;;;;;;1.25;1.10;;;20.90;96.40;;;;;;5019141;28;20807;-88
2022/07/05 04:02:11;;;;;;;2.10;1.00;;;20.90;96.10;;;;;;5020466;28;20225;-88
2022/07/05 04:04:38;;;;;;;1.30;1.20;;;20.90;96.20;;;;;;5030858;28;20204;-87
2022/07/05 04:07:05;;;;;;;1.52;1.10;;;20.90;96.30;;;;;;5018478;28;20485;-88
2022/07/05 04:09:32;;;;;;;1.63;1.10;;;20.90;96.40;;;;;;5013580;28;20667;-87
2022/07/05 04:11:58;;;;;;;1.80;1.23;;;20.80;96.40;;;;;;5028841;28;20199;-87
2022/07/05 04:14:26;;;;;;;1.42;1.30;;;20.90;96.50;;;;;;5025434;28;20221;-87
2022/07/05 04:16:53;;;;;;;1.10;1.00;;;20.80;96.50;;;;;;5019665;28;20199;-86
2022/07/05 04:19:20;;;;;;;1.70;1.60;;;20.80;96.50;;;;;;5023975;28;20196;-86
2022/07/05 04:21:47;;;;;;;1.70;1.23;;;20.80;96.50;;;;;;5028186;28;20203;-86
2022/07/05 04:24:14;;;;;;;1.67;1.45;;;20.80;96.60;;;;;;5025935;28;20670;-87
2022/07/05 04:26:40;;;;;;;2.28;2.03;;;20.80;96.60;;;;;;5023489;28;20200;-87
2022/07/05 04:29:07;;;;;;;1.90;1.30;;;20.80;96.60;;;;;;5028446;28;20196;-86
2022/07/05 04:31:36;;;;;;;1.35;1.05;;;20.80;96.70;;;;;;5025297;28;20218;-87
2022/07/05 04:34:03;;;;;;;1.65;1.55;;;20.80;96.80;;;;;;5022956;28;20661;-86
2022/07/05 04:36:29;;;;;;;1.40;1.30;;;20.80;96.80;;;;;;5031074;28;20631;-87
2022/07/05 04:38:56;;;;;;;3.90;1.30;;;20.80;96.90;;;;;;5023807;28;20203;-86
2022/07/05 04:41:23;;;;;;;5.10;1.35;;;20.80;96.90;;;;;;5029608;28;20206;-86
2022/07/05 04:43:50;;;;;;;1.38;1.27;;;20.80;96.90;;;;;;5031698;28;20196;-88
2022/07/05 04:46:16;;;;;;;1.88;1.67;;;20.80;96.80;;;;;;5027733;28;20218;-87
2022/07/05 04:48:44;;;;;;;3.95;2.28;;;20.80;96.80;;;;;;5033019;28;20227;-87
2022/07/05 04:51:11;;;;;;;1.30;1.10;;;20.80;96.90;;;;;;5031503;28;20206;-87
2022/07/05 04:53:38;;;;;;;1.52;1.30;;;20.80;96.90;;;;;;5023881;28;20204;-88
2022/07/05 04:56:06;;;;;;;1.50;1.30;;;20.80;96.90;;;;;;5031248;28;20677;-87
2022/07/05 04:58:32;;;;;;;1.37;1.23;;;20.80;96.90;;;;;;5033879;28;20228;-88
2022/07/05 05:00:59;;;;;;;1.80;1.20;;;20.80;97.00;;;;;;5026728;28;20983;-88
2022/07/05 05:03:26;;;;;;;1.35;1.10;;;20.80;96.90;;;;;;5025804;28;20698;-87
2022/07/05 05:05:54;;;;;;;1.33;1.10;;;20.80;96.90;;;;;;5026345;28;20203;-87
2022/07/05 05:08:21;;;;;;;1.30;1.20;;;20.80;96.90;;;;;;5024644;28;20485;-88
2022/07/05 05:10:48;;;;;;;2.10;1.60;;;20.80;96.90;;;;;;5027265;28;20458;-88
2022/07/05 05:13:14;;;;;;;1.20;1.10;;;20.80;96.90;;;;;;5034158;28;20465;-88
2022/07/05 05:15:41;;;;;;;1.25;1.15;;;20.80;96.80;;;;;;5027477;28;20199;-88
2022/07/05 05:18:08;;;;;;;1.40;1.17;;;20.80;96.80;;;;;;5025562;28;20633;-88
2022/07/05 05:20:35;;;;;;;2.05;1.70;;;20.80;96.90;;;;;;5024132;28;20248;-87
2022/07/05 05:23:03;;;;;;;1.45;1.25;;;20.80;96.80;;;;;;5024450;28;20195;-88
2022/07/05 05:25:30;;;;;;;1.30;1.10;;;20.80;96.90;;;;;;5017488;28;20203;-88
2022/07/05 05:27:57;;;;;;;1.30;1.00;;;20.80;96.90;;;;;;5017938;28;20219;-89
2022/07/05 05:30:24;;;;;;;1.33;0.95;;;20.80;96.90;;;;;;5028181;28;20492;-87
2022/07/05 05:32:50;;;;;;;1.90;1.55;;;20.80;96.90;;;;;;5028214;28;20199;-87
2022/07/05 05:35:20;;;;;;;1.38;1.27;;;20.80;96.80;;;;;;5017544;28;20204;-88
2022/07/05 05:37:49;;;;;;;1.15;1.00;;;20.90;96.80;;;;;;5026446;28;20283;-87
2022/07/05 05:40:18;;;;;;;1.43;1.20;;;21.00;96.80;;;;;;5027492;28;20544;-87
2022/07/05 05:42:45;;;;;;;1.30;1.10;;;21.30;96.60;;;;;;5023385;28;20508;-87
2022/07/05 05:45:12;;;;;;;1.20;0.90;;;21.60;96.00;;;;;;5015071;28;20463;-86
2022/07/05 05:47:50;;;;;;;2.90;1.10;;;22.00;95.30;;;;;;5029256;28;20533;-88
2022/07/05 05:50:21;;;;;;;1.30;1.10;;;22.30;94.60;;;;;;5027530;28;20469;-87
2022/07/05 05:52:48;;;;;;;1.80;1.10;;;22.60;94.00;;;;;;5028173;28;20462;-87
2022/07/05 05:55:15;;;;;;;2.10;1.30;;;22.70;93.50;;;;;;5014419;28;20960;-87
2022/07/05 05:57:43;;;;;;;1.80;1.40;;;22.90;93.10;;;;;;5030468;28;20465;-86
2022/07/05 06:00:11;;;;;;;1.80;1.10;;;23.00;92.80;;;;;;5027919;28;20462;-86
2022/07/05 06:02:37;;;;;;;1.10;0.90;;;23.10;92.50;;;;;;5026173;28;20471;-85
2022/07/05 06:05:05;;;;;;;2.33;1.30;;;23.30;92.20;;;;;;5026691;28;20958;-86
2022/07/05 06:07:32;;;;;;;2.03;0.93;;;23.40;91.90;;;;;;5023689;28;20479;-85
2022/07/05 06:09:58;;;;;;;1.23;0.97;;;23.50;91.70;;;;;;5026927;28;20466;-86
2022/07/05 06:12:25;;;;;;;1.77;1.23;;;23.60;91.40;;;;;;5027607;28;20443;-86
2022/07/05 06:14:53;;;;;;;1.30;1.00;;;23.70;91.20;;;;;;5022648;28;20807;-87
2022/07/05 06:17:20;;;;;;;1.10;0.90;;;23.80;90.90;;;;;;5024599;28;20462;-86
2022/07/05 06:19:47;;;;;;;1.70;0.90;;;23.90;90.70;;;;;;5028370;28;20840;-85
2022/07/05 06:22:13;;;;;;;1.33;1.07;;;23.90;90.50;;;;;;5029116;28;20566;-85
2022/07/05 06:24:40;;;;;;;1.70;1.47;;;24.00;90.40;;;;;;5013951;28;20455;-85
2022/07/05 06:27:07;;;;;;;1.40;0.70;;;24.00;90.20;;;;;;5028840;28;20918;-85
2022/07/05 06:29:34;;;;;;;1.87;1.10;;;24.10;90.00;;;;;;5027003;28;20493;-86
2022/07/05 06:32:03;;;;;;;1.10;0.90;;;24.20;89.70;;;;;;5027384;28;20451;-85
2022/07/05 06:34:30;;;;;;;1.60;0.97;;;24.30;89.40;;;;;;5026904;28;20516;-85
2022/07/05 06:36:56;;;;;;;1.60;1.23;;;24.30;89.10;;;;;;5030528;28;20988;-85
2022/07/05 06:39:23;;;;;;;2.80;1.07;;;24.40;88.90;;;;;;5024537;28;20454;-85
2022/07/05 06:41:50;;;;;;;1.00;0.80;;;24.40;88.50;;;;;;5030324;28;20451;-85
2022/07/05 06:44:16;;;;;;;1.90;1.17;;;24.50;88.20;;;;;;5025359;28;20521;-86
2022/07/05 06:46:43;;;;;;;1.30;0.80;;;24.60;88.10;;;;;;5022482;28;20467;-84
2022/07/05 06:49:11;;;;;;;1.20;1.00;;;24.60;87.90;;;;;;5028734;28;20489;-87
2022/07/05 06:51:38;;;;;;;1.50;1.03;;;24.70;87.70;;;;;;5028393;28;20493;-86
2022/07/05 06:54:05;;;;;;;1.17;0.93;;;24.70;87.50;;;;;;5028047;28;20458;-87
2022/07/05 06:56:31;;;;;;;0.93;0.70;;;24.80;87.20;;;;;;5023598;28;20469;-85
2022/07/05 06:58:58;;;;;;;1.40;1.00;;;24.80;86.80;;;;;;5029237;28;20451;-86
2022/07/05 07:01:25;;;;;;;1.60;1.00;;;24.90;86.80;;;;;;5024457;28;20466;-88
2022/07/05 07:03:52;;;;;;;1.27;0.70;;;25.00;86.70;;;;;;5025881;28;20454;-86
2022/07/05 07:06:20;;;;;;;1.10;1.00;;;25.00;86.40;;;;;;5029618;28;20455;-86
2022/07/05 07:11:31;;;;;;;2.40;0.90;;;25.10;85.90;;;;;;5012923;28;20598;-86
2022/07/05 07:13:58;;;;;;;1.00;0.70;;;25.20;85.50;;;;;;5026356;28;20459;-86
2022/07/05 07:16:25;;;;;;;1.23;1.03;;;25.30;85.30;;;;;;5018980;28;20450;-87
2022/07/05 07:18:52;;;;;;;2.40;0.90;;;25.30;84.70;;;;;;5030344;28;20439;-83
2022/07/05 07:21:20;;;;;;;1.43;0.70;;;25.40;84.70;;;;;;5026929;28;20458;-85
2022/07/05 07:23:47;;;;;;;1.10;0.80;;;25.50;84.30;;;;;;5022674;28;20462;-84
2022/07/05 07:26:14;;;;;;;1.20;0.90;;;25.50;83.70;;;;;;5025331;28;20914;-86
2022/07/05 07:28:41;;;;;;;2.20;0.87;;;25.50;84.00;;;;;;5027632;28;20490;-83
2022/07/05 07:31:08;;;;;;;7.07;6.83;;;25.50;84.20;;;;;;5028106;28;20439;-83
2022/07/05 07:33:35;;;;;;;1.83;0.90;;;25.50;83.40;;;;;;5017159;28;20545;-84
2022/07/05 07:36:02;;;;;;;2.77;2.67;;;25.60;83.40;;;;;;5016664;28;20538;-85
2022/07/05 07:38:30;;;;;;;24.97;24.10;;;25.60;83.60;;;;;;5020520;28;20791;-84
2022/07/05 07:41:00;;;;;;;2.27;1.23;;;25.60;83.50;;;;;;5020709;28;20557;-83
2022/07/05 07:43:27;;;;;;;1.20;0.90;;;25.70;83.20;;;;;;5024917;28;20547;-85
2022/07/05 07:45:54;;;;;;;1.10;0.90;;;25.70;83.00;;;;;;5026736;28;20478;-83
2022/07/05 07:48:21;;;;;;;1.57;1.17;;;25.80;82.90;;;;;;5020394;28;20482;-82
2022/07/05 07:50:47;;;;;;;1.53;0.80;;;25.90;82.50;;;;;;5027185;28;20633;-83
2022/07/05 07:53:14;;;;;;;1.00;0.90;;;25.90;82.70;;;;;;5024176;28;20841;-86
2022/07/05 07:55:42;;;;;;;1.73;0.93;;;25.90;82.50;;;;;;5024999;28;20447;-85
2022/07/05 07:58:09;;;;;;;1.20;0.80;;;26.00;82.60;;;;;;5024785;28;20887;-84
2022/07/05 08:00:36;;;;;;;1.23;0.97;;;26.00;82.40;;;;;;5025463;28;20463;-84
2022/07/05 08:03:02;;;;;;;2.00;0.80;;;26.10;83.10;;;;;;5013896;28;20505;-82
2022/07/05 08:05:31;;;;;;;1.13;0.80;;;26.10;82.00;;;;;;5015987;28;20462;-82
2022/07/05 08:07:58;;;;;;;1.10;0.70;;;26.20;81.70;;;;;;5020536;28;20462;-83
2022/07/05 08:10:24;;;;;;;1.73;0.97;;;26.20;81.70;;;;;;5025150;28;20787;-83
2022/07/05 08:12:53;;;;;;;1.63;0.90;;;26.10;81.20;;;;;;5028771;28;20466;-87
2022/07/05 08:15:19;;;;;;;1.80;1.00;;;25.80;81.70;;;;;;5029389;28;20465;-84
2022/07/05 08:23:11;;;;;;;1.37;1.10;;;25.60;83.20;;;;;;5033749;28;20444;-85
2022/07/05 08:25:38;;;;;;;1.00;0.70;;;25.50;83.20;;;;;;5033008;28;20460;-86
2022/07/05 08:28:06;;;;;;;2.73;0.87;;;25.50;83.90;;;;;;5024106;28;20443;-85
2022/07/05 08:30:33;;;;;;;1.33;0.70;;;25.60;83.30;;;;;;5028827;28;21265;-85
2022/07/05 08:33:00;;;;;;;1.40;0.80;;;25.60;83.10;;;;;;5028717;28;20810;-90
2022/07/05 08:35:27;;;;;;;1.70;0.90;;;25.40;83.40;;;;;;5028066;28;20458;-87
2022/07/05 08:37:54;;;;;;;1.40;0.83;;;25.20;84.20;;;;;;5024943;28;20537;-84
2022/07/05 08:40:26;;;;;;;2.90;1.00;;;25.00;84.80;;;;;;5030261;28;20869;-85
2022/07/05 08:42:54;;;;;;;1.10;0.90;;;24.80;85.60;;;;;;5024962;28;20454;-86
2022/07/05 08:45:24;;;;;;;1.00;0.77;;;24.80;86.10;;;;;;5029614;28;20804;-87
2022/07/05 08:47:52;;;;;;;1.60;0.83;;;24.80;86.30;;;;;;5030781;28;20834;-84
2022/07/05 08:50:21;;;;;;;1.20;1.00;;;24.90;85.80;;;;;;5027177;28;20545;-86
2022/07/05 08:52:48;;;;;;;1.10;0.93;;;24.80;86.00;;;;;;5027815;28;20459;-86
2022/07/05 08:55:15;;;;;;;1.00;0.80;;;24.70;85.80;;;;;;5027972;28;20455;-84
2022/07/05 08:57:42;;;;;;;1.07;0.83;;;24.60;86.90;;;;;;5015949;28;20450;-85
2022/07/05 09:00:10;;;;;;;4.30;1.23;;;24.50;87.00;;;;;;5024655;28;20454;-86
2022/07/05 09:02:38;;;;;;;1.20;0.90;;;24.50;87.30;;;;;;5025370;28;20982;-85
2022/07/05 09:05:06;;;;;;;1.00;0.80;;;24.40;87.90;;;;;;5028353;28;20457;-83
2022/07/05 09:07:36;;;;;;;2.50;0.83;;;24.50;87.50;;;;;;5028131;28;20490;-85
2022/07/05 09:10:04;;;;;;;0.90;0.70;;;24.50;87.90;;;;;;5027687;28;20485;-84
2022/07/05 09:12:31;;;;;;;1.00;0.80;;;24.50;88.80;;;;;;5016838;28;20572;-84
2022/07/05 09:14:58;;;;;;;1.27;0.80;;;24.60;87.90;;;;;;5031698;28;20459;-84
2022/07/05 09:17:27;;;;;;;1.00;0.70;;;24.80;87.10;;;;;;5026243;28;20516;-84
2022/07/05 09:20:10;;;;;;;1.10;0.90;;;24.90;86.20;;;;;;5027874;28;20462;-86
2022/07/05 09:22:48;;;;;;;1.10;0.80;;;25.00;86.70;;;;;;5026378;28;20466;-84
2022/07/05 09:25:21;;;;;;;1.63;0.80;;;25.00;87.20;;;;;;5015126;28;20466;-87
2022/07/05 09:27:52;;;;;;;1.00;0.80;;;25.20;86.30;;;;;;5026044;28;20493;-86
2022/07/05 09:30:31;;;;;;;1.10;0.80;;;25.30;85.60;;;;;;5028741;28;20544;-84
2022/07/05 09:33:06;;;;;;;1.97;0.80;;;25.40;85.20;;;;;;5027561;28;20533;-85
2022/07/05 09:35:36;;;;;;;1.00;0.70;;;25.50;85.10;;;;;;5033773;28;20469;-85
2022/07/05 09:38:04;;;;;;;2.20;1.03;;;25.50;84.60;;;;;;5023241;28;20453;-88
2022/07/05 09:40:31;;;;;;;1.10;0.77;;;25.60;84.40;;;;;;5026871;28;20880;-87
2022/07/05 09:43:12;;;;;;;2.27;0.90;;;25.60;84.30;;;;;;5031740;28;20540;-85
2022/07/05 09:45:38;;;;;;;1.30;0.90;;;25.60;84.30;;;;;;5029493;28;20548;-86
2022/07/05 09:48:07;;;;;;;1.93;0.67;;;25.70;84.20;;;;;;5030422;28;20469;-82
2022/07/05 09:50:36;;;;;;;1.27;0.80;;;25.60;83.50;;;;;;5027725;28;20509;-84
2022/07/05 09:53:04;;;;;;;1.67;1.30;;;25.50;83.10;;;;;;5026105;28;20961;-83
2022/07/05 09:55:31;;;;;;;1.37;0.90;;;25.40;83.50;;;;;;5029859;28;20877;-82
2022/07/05 09:57:57;;;;;;;2.07;0.90;;;25.20;83.10;;;;;;5029949;28;20450;-83
2022/07/05 10:00:24;;;;;;;1.10;0.73;;;25.00;83.90;;;;;;5026501;28;20460;-83
2022/07/05 10:02:53;;;;;;;2.30;1.00;;;25.00;85.40;;;;;;5025581;28;20467;-89
2022/07/05 10:05:22;;;;;;;1.20;0.80;;;25.00;85.80;;;;;;5044886;28;20449;-91
2022/07/05 10:07:51;;;;;;;1.00;0.70;;;25.10;85.40;;;;;;5022064;28;20497;-86
2022/07/05 10:10:20;;;;;;;1.20;0.70;;;25.10;85.40;;;;;;5022269;28;20969;-86
2022/07/05 10:12:48;;;;;;;1.27;0.80;;;25.10;85.20;;;;;;5029339;28;20469;-83
2022/07/05 10:15:18;;;;;;;1.10;0.90;;;25.20;84.90;;;;;;5027076;28;20493;-83
2022/07/05 10:17:46;;;;;;;1.20;0.90;;;25.10;83.30;;;;;;5021374;28;20455;-84
2022/07/05 10:20:24;;;;;;;1.00;0.90;;;25.00;84.20;;;;;;5027650;28;20613;-84
2022/07/05 10:22:53;;;;;;;1.43;0.70;;;25.00;84.60;;;;;;5023564;28;20946;-83
2022/07/05 10:25:20;;;;;;;1.63;0.90;;;24.90;85.40;;;;;;5021706;28;20837;-83
2022/07/05 10:27:48;;;;;;;1.37;1.00;;;24.80;84.30;;;;;;5025873;28;20450;-86
2022/07/05 10:30:17;;;;;;;1.00;0.90;;;24.90;83.60;;;;;;5011305;28;20506;-82
2022/07/05 10:32:45;;;;;;;1.33;0.80;;;24.90;84.60;;;;;;5028153;28;20565;-83
2022/07/05 10:35:13;;;;;;;1.17;0.80;;;24.90;84.90;;;;;;5017219;28;21054;-83
2022/07/05 10:37:40;;;;;;;1.40;1.20;;;25.00;84.60;;;;;;5010109;28;20459;-86
2022/07/05 10:40:10;;;;;;;1.30;0.90;;;25.00;85.00;;;;;;5024099;28;20454;-84
2022/07/05 10:42:40;;;;;;;1.00;0.80;;;24.90;84.80;;;;;;5021083;28;20451;-83
2022/07/05 10:45:23;;;;;;;1.87;1.00;;;24.90;85.40;;;;;;5025064;28;20462;-84
2022/07/05 10:48:17;;;;;;;1.20;0.87;;;24.80;84.20;;;;;;5027645;28;20806;-86
2022/07/05 10:50:49;;;;;;;3.10;1.10;;;24.80;84.50;;;;;;5023220;28;20496;-85
2022/07/05 10:53:17;;;;;;;1.00;0.90;;;24.80;85.30;;;;;;5022440;28;20569;-83
2022/07/05 10:56:12;;;;;;;1.40;1.00;;;24.80;84.80;;;;;;5028646;28;20968;-85
2022/07/05 10:58:40;;;;;;;1.30;0.90;;;24.80;84.40;;;;;;5021138;28;20980;-84
2022/07/05 11:01:35;;;;;;;1.50;0.90;;;24.80;85.50;;;;;;5021783;28;21098;-84
2022/07/05 11:04:29;;;;;;;1.20;0.80;;;24.80;84.80;;;;;;5021359;28;20963;-84
2022/07/05 11:06:56;;;;;;;1.00;0.87;;;24.80;83.70;;;;;;5024823;28;20480;-83
2022/07/05 11:09:23;;;;;;;1.20;1.10;;;24.70;84.70;;;;;;5017756;28;21015;-82
2022/07/05 11:12:13;;;;;;;1.67;1.07;;;24.70;85.10;;;;;;5018396;28;21063;-84
2022/07/05 11:14:46;;;;;;;1.07;0.80;;;24.70;81.70;;;;;;5024690;28;20462;-84
2022/07/05 11:17:29;;;;;;;1.10;0.90;;;24.60;82.90;;;;;;5023351;28;20477;-86
2022/07/05 11:20:12;;;;;;;1.40;0.80;;;24.60;84.60;;;;;;5017162;28;20458;-84
2022/07/05 11:22:41;;;;;;;1.43;0.90;;;24.60;84.10;;;;;;5021342;28;20975;-83
2022/07/05 11:25:10;;;;;;;2.23;1.00;;;24.60;84.50;;;;;;5021206;28;20470;-84
2022/07/05 11:28:05;;;;;;;1.23;1.00;;;24.50;84.90;;;;;;5020030;28;20620;-84
2022/07/05 11:30:50;;;;;;;1.00;0.90;;;24.50;84.40;;;;;;5019074;28;20993;-83
2022/07/05 11:33:34;;;;;;;1.60;1.03;;;24.50;84.80;;;;;;5018999;28;20466;-84
2022/07/05 11:36:03;;;;;;;1.83;0.70;;;24.50;85.70;;;;;;5028518;28;20446;-81
2022/07/05 11:38:31;;;;;;;1.10;0.80;;;24.60;86.00;;;;;;5016359;28;20538;-81
2022/07/05 11:41:12;;;;;;;1.10;0.90;;;24.60;83.90;;;;;;5020781;28;20451;-82
2022/07/05 11:43:42;;;;;;;1.20;0.70;;;24.70;83.60;;;;;;5026613;28;20593;-82
2022/07/05 11:46:09;;;;;;;1.00;0.70;;;24.60;84.10;;;;;;5019390;28;20457;-83
2022/07/05 11:48:37;;;;;;;1.20;0.80;;;24.60;84.70;;;;;;5024451;28;20456;-82
2022/07/05 11:51:13;;;;;;;1.53;0.90;;;24.60;85.10;;;;;;5019801;28;20572;-83
2022/07/05 11:53:41;;;;;;;1.03;0.80;;;24.70;84.80;;;;;;5022494;28;20469;-85
2022/07/05 11:56:09;;;;;;;2.40;1.03;;;24.60;84.80;;;;;;5028942;28;20553;-82
2022/07/05 11:58:36;;;;;;;1.20;0.83;;;24.60;84.00;;;;;;5023662;28;20461;-86
2022/07/05 12:01:05;;;;;;;1.30;1.10;;;24.60;84.30;;;;;;5020401;28;20834;-83
2022/07/05 12:03:32;;;;;;;1.07;0.90;;;24.60;83.60;;;;;;5021353;28;21007;-85
2022/07/05 12:05:59;;;;;;;1.00;0.80;;;24.60;84.10;;;;;;5024035;28;20977;-83
2022/07/05 12:08:26;;;;;;;1.20;1.00;;;24.60;84.00;;;;;;5021492;28;20462;-85
2022/07/05 12:13:47;;;;;;;1.10;0.80;;;24.60;84.20;;;;;;5024442;28;20449;-84
2022/07/05 12:16:15;;;;;;;1.83;1.00;;;24.60;81.80;;;;;;5021578;28;20473;-83
2022/07/05 12:18:50;;;;;;;1.20;0.90;;;24.50;81.80;;;;;;5010243;28;21033;-84
2022/07/05 12:21:17;;;;;;;1.17;0.97;;;24.50;84.10;;;;;;5011902;28;20462;-84
2022/07/05 12:23:44;;;;;;;1.13;0.93;;;24.50;82.90;;;;;;5021348;28;20455;-82
2022/07/05 12:26:12;;;;;;;1.40;0.87;;;24.50;83.30;;;;;;5027249;28;20462;-82
2022/07/05 12:28:39;;;;;;;1.30;1.00;;;24.50;83.30;;;;;;5015504;28;20501;-83
2022/07/05 12:31:18;;;;;;;1.67;0.90;;;24.50;83.90;;;;;;5023382;28;20493;-84
2022/07/05 12:33:45;;;;;;;1.30;0.80;;;24.50;83.90;;;;;;5019151;28;20825;-84
2022/07/05 12:36:13;;;;;;;1.33;0.80;;;24.50;83.60;;;;;;5028909;28;20469;-83
2022/07/05 12:38:40;;;;;;;1.17;0.90;;;24.50;83.70;;;;;;5025714;28;20461;-85
2022/07/05 12:41:06;;;;;;;1.10;0.90;;;24.50;83.40;;;;;;5021653;28;20493;-81
2022/07/05 12:43:33;;;;;;;1.10;0.93;;;24.50;82.30;;;;;;5025290;28;20465;-83
2022/07/05 12:46:01;;;;;;;1.60;1.23;;;24.50;84.80;;;;;;5023223;28;20544;-83
2022/07/05 12:48:33;;;;;;;5.53;1.30;;;24.50;83.90;;;;;;5024830;28;20501;-86
2022/07/05 12:51:00;;;;;;;1.00;0.80;;;24.50;84.30;;;;;;5023692;28;21019;-82
2022/07/05 12:59:10;;;;;;;1.00;0.83;;;24.50;83.50;;;;;;5021664;28;20536;-84
2022/07/05 13:01:42;;;;;;;1.50;1.10;;;24.50;82.50;;;;;;5026766;28;20478;-81
2022/07/05 13:04:12;;;;;;;1.30;1.20;;;24.40;82.70;;;;;;5031884;28;21021;-83
2022/07/05 13:06:44;;;;;;;3.57;0.90;;;24.40;83.10;;;;;;5025068;28;20791;-83
2022/07/05 13:09:12;;;;;;;1.20;1.10;;;24.40;83.50;;;;;;5023390;28;20553;-81